AAL2556 KPNS-KCLT
Flight info
| Callsign | AAL2556 |
|---|---|
| Flight time | 1h 13m |
| Altitude | 39000 |
| Route | CEW MCN PONZE BANKR5 |
| Aircraft | A319/M-SDE3FGHIRWY/LB1 |
Departure
| Time | 2026-05-04 00:40 |
|---|---|
| Airport | Pensacola International Airport (KPNS) |
Arrival
| Time | 2026-05-04 01:53 |
|---|---|
| Airport | Charlotte Douglas International Airport (KCLT) |
| Time | Latitude | Longitude | Altitude | Speed | Heading |
|---|---|---|---|---|---|
| 2026-05-04 00:08 | 30.47470 | -87.19232 | 128 ft | 0 kts | 28° |
| 2026-05-04 00:29 | 30.47459 | -87.19239 | 124 ft | 3 kts | 31° |
| 2026-05-04 00:29 | 30.47447 | -87.19248 | 127 ft | 3 kts | 37° |
| 2026-05-04 00:30 | 30.47431 | -87.19263 | 124 ft | 3 kts | 51° |
| 2026-05-04 00:30 | 30.47422 | -87.19281 | 124 ft | 3 kts | 84° |
| 2026-05-04 00:30 | 30.47423 | -87.19296 | 127 ft | 1 kts | 118° |
| 2026-05-04 00:30 | 30.47425 | -87.19301 | 127 ft | 0 kts | 118° |
| 2026-05-04 00:33 | 30.47424 | -87.19300 | 127 ft | 1 kts | 118° |
| 2026-05-04 00:33 | 30.47419 | -87.19289 | 125 ft | 3 kts | 118° |
| 2026-05-04 00:34 | 30.47409 | -87.19266 | 126 ft | 4 kts | 117° |
| 2026-05-04 00:34 | 30.47401 | -87.19233 | 127 ft | 5 kts | 99° |
| 2026-05-04 00:34 | 30.47406 | -87.19188 | 130 ft | 6 kts | 78° |
| 2026-05-04 00:34 | 30.47420 | -87.19133 | 130 ft | 8 kts | 67° |
| 2026-05-04 00:35 | 30.47426 | -87.19070 | 130 ft | 9 kts | 115° |
| 2026-05-04 00:35 | 30.47392 | -87.19001 | 126 ft | 11 kts | 121° |
| 2026-05-04 00:35 | 30.47331 | -87.18970 | 127 ft | 11 kts | 165° |
| 2026-05-04 00:35 | 30.47247 | -87.18946 | 127 ft | 14 kts | 167° |
| 2026-05-04 00:36 | 30.47152 | -87.18921 | 127 ft | 14 kts | 167° |
| 2026-05-04 00:36 | 30.47050 | -87.18894 | 129 ft | 16 kts | 167° |
| 2026-05-04 00:36 | 30.46946 | -87.18866 | 126 ft | 16 kts | 167° |
| 2026-05-04 00:36 | 30.46835 | -87.18836 | 129 ft | 17 kts | 167° |
| 2026-05-04 00:37 | 30.46714 | -87.18805 | 129 ft | 18 kts | 167° |
| 2026-05-04 00:37 | 30.46585 | -87.18771 | 127 ft | 20 kts | 167° |
| 2026-05-04 00:37 | 30.46468 | -87.18740 | 125 ft | 17 kts | 167° |
| 2026-05-04 00:37 | 30.46415 | -87.18720 | 129 ft | 3 kts | 138° |
| 2026-05-04 00:38 | 30.46410 | -87.18694 | 127 ft | 4 kts | 89° |
| 2026-05-04 00:38 | 30.46407 | -87.18657 | 130 ft | 6 kts | 90° |
| 2026-05-04 00:38 | 30.46419 | -87.18604 | 127 ft | 8 kts | 66° |
| 2026-05-04 00:38 | 30.46462 | -87.18580 | 127 ft | 6 kts | 352° |
| 2026-05-04 00:39 | 30.46486 | -87.18587 | 128 ft | 0 kts | 346° |
| 2026-05-04 00:39 | 30.46518 | -87.18596 | 129 ft | 21 kts | 346° |
| 2026-05-04 00:39 | 30.46886 | -87.18694 | 128 ft | 87 kts | 347° |
| 2026-05-04 00:40 | 30.47677 | -87.18904 | 133 ft | 145 kts | 347° |
| 2026-05-04 00:40 | 30.48760 | -87.19184 | 496 ft | 166 kts | 347° |
| 2026-05-04 00:40 | 30.49913 | -87.19489 | 1143 ft | 173 kts | 348° |
| 2026-05-04 00:40 | 30.51107 | -87.19809 | 1846 ft | 178 kts | 348° |
| 2026-05-04 00:41 | 30.52380 | -87.19796 | 2269 ft | 197 kts | 21° |
| 2026-05-04 00:41 | 30.53451 | -87.18702 | 2674 ft | 221 kts | 51° |
| 2026-05-04 00:41 | 30.54338 | -87.17109 | 3159 ft | 248 kts | 58° |
| 2026-05-04 00:41 | 30.55216 | -87.15322 | 3980 ft | 260 kts | 59° |
| 2026-05-04 00:42 | 30.56129 | -87.13494 | 5033 ft | 264 kts | 58° |
| 2026-05-04 00:42 | 30.57083 | -87.11674 | 6061 ft | 267 kts | 57° |
| 2026-05-04 00:42 | 30.58091 | -87.09843 | 7039 ft | 272 kts | 55° |
| 2026-05-04 00:42 | 30.59144 | -87.07989 | 7973 ft | 277 kts | 54° |
| 2026-05-04 00:43 | 30.60220 | -87.06135 | 8862 ft | 283 kts | 53° |
| 2026-05-04 00:43 | 30.61343 | -87.04226 | 9768 ft | 289 kts | 53° |
| 2026-05-04 00:43 | 30.62496 | -87.02275 | 10512 ft | 300 kts | 52° |
| 2026-05-04 00:43 | 30.63711 | -87.00219 | 10948 ft | 319 kts | 53° |
| 2026-05-04 00:44 | 30.64980 | -86.98066 | 11646 ft | 327 kts | 53° |
| 2026-05-04 00:44 | 30.66273 | -86.95867 | 12417 ft | 333 kts | 53° |
| 2026-05-04 00:44 | 30.67592 | -86.93621 | 13176 ft | 339 kts | 53° |
| 2026-05-04 00:44 | 30.68934 | -86.91330 | 13917 ft | 346 kts | 53° |
| 2026-05-04 00:45 | 30.70301 | -86.88995 | 14596 ft | 351 kts | 53° |
| 2026-05-04 00:45 | 30.71685 | -86.86633 | 15287 ft | 355 kts | 52° |
| 2026-05-04 00:45 | 30.73085 | -86.84245 | 16004 ft | 359 kts | 52° |
| 2026-05-04 00:45 | 30.74496 | -86.81833 | 16700 ft | 363 kts | 52° |
| 2026-05-04 00:46 | 30.75929 | -86.79389 | 17405 ft | 367 kts | 52° |
| 2026-05-04 00:46 | 30.77370 | -86.76929 | 18114 ft | 371 kts | 52° |
| 2026-05-04 00:46 | 30.78807 | -86.74474 | 18745 ft | 374 kts | 52° |
| 2026-05-04 00:46 | 30.80276 | -86.71957 | 19361 ft | 377 kts | 52° |
| 2026-05-04 00:47 | 30.81771 | -86.69385 | 19997 ft | 380 kts | 52° |
| 2026-05-04 00:47 | 30.83244 | -86.66866 | 20623 ft | 382 kts | 51° |
| 2026-05-04 00:47 | 30.84803 | -86.64342 | 21249 ft | 384 kts | 50° |
| 2026-05-04 00:47 | 30.86407 | -86.61843 | 21856 ft | 387 kts | 49° |
| 2026-05-04 00:48 | 30.88059 | -86.59306 | 22459 ft | 390 kts | 49° |
| 2026-05-04 00:48 | 30.89703 | -86.56780 | 23070 ft | 392 kts | 49° |
| 2026-05-04 00:48 | 30.91328 | -86.54266 | 23625 ft | 397 kts | 49° |
| 2026-05-04 00:48 | 30.92991 | -86.51678 | 24122 ft | 400 kts | 49° |
| 2026-05-04 00:49 | 30.94682 | -86.49028 | 24589 ft | 404 kts | 49° |
| 2026-05-04 00:49 | 30.96365 | -86.46386 | 25052 ft | 408 kts | 49° |
| 2026-05-04 00:49 | 30.98064 | -86.43715 | 25491 ft | 413 kts | 49° |
| 2026-05-04 00:49 | 30.99758 | -86.41049 | 25924 ft | 417 kts | 49° |
| 2026-05-04 00:50 | 31.01513 | -86.38280 | 26361 ft | 421 kts | 49° |
| 2026-05-04 00:50 | 31.03242 | -86.35558 | 26785 ft | 425 kts | 49° |
| 2026-05-04 00:50 | 31.05034 | -86.32740 | 27207 ft | 429 kts | 49° |
| 2026-05-04 00:50 | 31.06821 | -86.29927 | 27616 ft | 434 kts | 49° |
| 2026-05-04 00:51 | 31.08620 | -86.27081 | 28029 ft | 438 kts | 49° |
| 2026-05-04 00:51 | 31.10431 | -86.24202 | 28431 ft | 442 kts | 49° |
| 2026-05-04 00:51 | 31.12258 | -86.21297 | 28837 ft | 446 kts | 49° |
| 2026-05-04 00:51 | 31.14108 | -86.18366 | 29235 ft | 450 kts | 49° |
| 2026-05-04 00:52 | 31.15958 | -86.15446 | 29537 ft | 456 kts | 50° |
| 2026-05-04 00:52 | 31.17858 | -86.12443 | 29829 ft | 463 kts | 50° |
| 2026-05-04 00:52 | 31.19777 | -86.09401 | 30250 ft | 466 kts | 50° |
| 2026-05-04 00:52 | 31.21700 | -86.06347 | 30668 ft | 467 kts | 50° |
| 2026-05-04 00:53 | 31.23632 | -86.03277 | 31049 ft | 470 kts | 50° |
| 2026-05-04 00:53 | 31.25574 | -86.00190 | 31412 ft | 472 kts | 50° |
| 2026-05-04 00:53 | 31.27520 | -85.97088 | 31766 ft | 475 kts | 50° |
| 2026-05-04 00:53 | 31.29470 | -85.93976 | 32227 ft | 474 kts | 50° |
| 2026-05-04 00:54 | 31.31415 | -85.90869 | 32724 ft | 473 kts | 50° |
| 2026-05-04 00:54 | 31.33357 | -85.87764 | 33213 ft | 473 kts | 50° |
| 2026-05-04 00:54 | 31.35301 | -85.84664 | 33706 ft | 472 kts | 50° |
| 2026-05-04 00:54 | 31.37235 | -85.81570 | 34165 ft | 472 kts | 50° |
| 2026-05-04 00:55 | 31.39176 | -85.78467 | 34524 ft | 471 kts | 50° |
| 2026-05-04 00:55 | 31.41115 | -85.75368 | 34865 ft | 472 kts | 50° |
| 2026-05-04 00:55 | 31.43059 | -85.72260 | 35183 ft | 473 kts | 50° |
| 2026-05-04 00:55 | 31.45001 | -85.69150 | 35526 ft | 474 kts | 50° |
| 2026-05-04 00:56 | 31.46946 | -85.66029 | 35909 ft | 473 kts | 50° |
| 2026-05-04 00:56 | 31.48881 | -85.62911 | 36287 ft | 473 kts | 50° |
| 2026-05-04 00:56 | 31.50817 | -85.59790 | 36608 ft | 473 kts | 50° |
| 2026-05-04 00:56 | 31.52757 | -85.56669 | 36911 ft | 474 kts | 50° |
| 2026-05-04 00:57 | 31.54699 | -85.53546 | 37192 ft | 475 kts | 50° |
| 2026-05-04 00:57 | 31.56649 | -85.50408 | 37477 ft | 476 kts | 50° |
| 2026-05-04 00:57 | 31.58603 | -85.47269 | 37766 ft | 477 kts | 50° |
| 2026-05-04 00:57 | 31.60562 | -85.44119 | 38036 ft | 478 kts | 50° |
| 2026-05-04 00:58 | 31.62521 | -85.40957 | 38266 ft | 480 kts | 50° |
| 2026-05-04 00:58 | 31.64462 | -85.37816 | 38409 ft | 483 kts | 50° |
| 2026-05-04 00:58 | 31.66439 | -85.34614 | 38607 ft | 485 kts | 50° |
| 2026-05-04 00:58 | 31.68417 | -85.31404 | 38820 ft | 486 kts | 50° |
| 2026-05-04 00:59 | 31.70401 | -85.28188 | 39019 ft | 487 kts | 50° |
| 2026-05-04 00:59 | 31.72396 | -85.24954 | 39140 ft | 490 kts | 50° |
| 2026-05-04 00:59 | 31.74405 | -85.21695 | 39124 ft | 494 kts | 50° |
| 2026-05-04 01:00 | 31.78444 | -85.15139 | 39128 ft | 495 kts | 50° |
| 2026-05-04 01:00 | 31.82488 | -85.08560 | 39127 ft | 496 kts | 50° |
| 2026-05-04 01:01 | 31.86520 | -85.01974 | 39127 ft | 498 kts | 51° |
| 2026-05-04 01:01 | 31.90575 | -84.95350 | 39122 ft | 499 kts | 51° |
| 2026-05-04 01:02 | 31.94633 | -84.88706 | 39116 ft | 499 kts | 51° |
| 2026-05-04 01:02 | 31.98693 | -84.82062 | 39144 ft | 499 kts | 51° |
| 2026-05-04 01:03 | 32.02711 | -84.75465 | 39135 ft | 498 kts | 51° |
| 2026-05-04 01:03 | 32.06742 | -84.68836 | 39128 ft | 497 kts | 51° |
| 2026-05-04 01:04 | 32.10762 | -84.62207 | 39113 ft | 497 kts | 51° |
| 2026-05-04 01:04 | 32.14788 | -84.55556 | 39104 ft | 498 kts | 51° |
| 2026-05-04 01:05 | 32.18818 | -84.48899 | 39102 ft | 498 kts | 51° |
| 2026-05-04 01:05 | 32.22854 | -84.42232 | 39129 ft | 499 kts | 51° |
| 2026-05-04 01:06 | 32.26873 | -84.35563 | 39126 ft | 498 kts | 51° |
| 2026-05-04 01:06 | 32.30883 | -84.28886 | 39118 ft | 497 kts | 51° |
| 2026-05-04 01:07 | 32.34887 | -84.22216 | 39108 ft | 498 kts | 51° |
| 2026-05-04 01:07 | 32.38873 | -84.15575 | 39100 ft | 499 kts | 51° |
| 2026-05-04 01:08 | 32.42894 | -84.08877 | 39108 ft | 499 kts | 52° |
| 2026-05-04 01:08 | 32.46923 | -84.02117 | 39117 ft | 500 kts | 52° |
| 2026-05-04 01:09 | 32.50902 | -83.95427 | 39150 ft | 499 kts | 52° |
| 2026-05-04 01:09 | 32.54912 | -83.88702 | 39145 ft | 499 kts | 52° |
| 2026-05-04 01:10 | 32.58914 | -83.81971 | 39139 ft | 500 kts | 52° |
| 2026-05-04 01:10 | 32.62918 | -83.75213 | 39118 ft | 501 kts | 52° |
| 2026-05-04 01:11 | 32.66920 | -83.68454 | 39122 ft | 501 kts | 52° |
| 2026-05-04 01:11 | 32.70966 | -83.61716 | 39125 ft | 500 kts | 50° |
| 2026-05-04 01:12 | 32.75248 | -83.55216 | 39151 ft | 499 kts | 48° |
| 2026-05-04 01:12 | 32.79620 | -83.48810 | 39118 ft | 499 kts | 48° |
| 2026-05-04 01:13 | 32.83921 | -83.42381 | 39093 ft | 500 kts | 49° |
| 2026-05-04 01:13 | 32.88202 | -83.35849 | 39092 ft | 501 kts | 49° |
| 2026-05-04 01:14 | 32.92474 | -83.29297 | 39095 ft | 501 kts | 49° |
| 2026-05-04 01:14 | 32.96756 | -83.22748 | 39097 ft | 501 kts | 49° |
| 2026-05-04 01:15 | 33.01044 | -83.16212 | 39129 ft | 500 kts | 49° |
| 2026-05-04 01:15 | 33.05327 | -83.09674 | 39109 ft | 500 kts | 49° |
| 2026-05-04 01:16 | 33.09596 | -83.03121 | 39102 ft | 501 kts | 49° |
| 2026-05-04 01:16 | 33.13152 | -82.97654 | 39100 ft | 502 kts | 49° |
| 2026-05-04 01:17 | 33.17437 | -82.91068 | 39099 ft | 502 kts | 49° |
| 2026-05-04 01:17 | 33.21718 | -82.84476 | 38826 ft | 507 kts | 49° |
| 2026-05-04 01:17 | 33.24590 | -82.80044 | 38074 ft | 510 kts | 50° |
| 2026-05-04 01:18 | 33.26049 | -82.77787 | 38103 ft | 507 kts | 50° |
| 2026-05-04 01:18 | 33.28200 | -82.74454 | 38385 ft | 505 kts | 50° |
| 2026-05-04 01:18 | 33.30342 | -82.71128 | 38670 ft | 504 kts | 50° |
| 2026-05-04 01:18 | 33.32482 | -82.67805 | 38918 ft | 504 kts | 50° |
| 2026-05-04 01:19 | 33.34629 | -82.64479 | 39084 ft | 506 kts | 49° |
| 2026-05-04 01:19 | 33.38975 | -82.57759 | 39144 ft | 517 kts | 50° |
| 2026-05-04 01:20 | 33.43368 | -82.50932 | 39155 ft | 526 kts | 50° |
| 2026-05-04 01:20 | 33.47839 | -82.43955 | 39090 ft | 527 kts | 50° |
| 2026-05-04 01:21 | 33.52289 | -82.36987 | 39093 ft | 527 kts | 50° |
| 2026-05-04 01:21 | 33.56754 | -82.29992 | 39100 ft | 529 kts | 50° |
| 2026-05-04 01:22 | 33.61224 | -82.22995 | 38904 ft | 527 kts | 50° |
| 2026-05-04 01:22 | 33.63449 | -82.19511 | 38240 ft | 523 kts | 50° |
| 2026-05-04 01:22 | 33.65649 | -82.16058 | 37427 ft | 519 kts | 50° |
| 2026-05-04 01:22 | 33.67823 | -82.12634 | 36693 ft | 513 kts | 50° |
| 2026-05-04 01:23 | 33.69981 | -82.09231 | 35657 ft | 513 kts | 50° |
| 2026-05-04 01:23 | 33.72139 | -82.05826 | 34898 ft | 507 kts | 51° |
| 2026-05-04 01:23 | 33.74243 | -82.02502 | 34418 ft | 495 kts | 51° |
| 2026-05-04 01:23 | 33.76458 | -81.99404 | 33858 ft | 481 kts | 41° |
| 2026-05-04 01:24 | 33.78962 | -81.96863 | 33415 ft | 463 kts | 31° |
| 2026-05-04 01:24 | 33.81661 | -81.94892 | 32968 ft | 444 kts | 21° |
| 2026-05-04 01:24 | 33.84412 | -81.93487 | 32549 ft | 428 kts | 14° |
| 2026-05-04 01:24 | 33.87166 | -81.92258 | 32096 ft | 418 kts | 14° |
| 2026-05-04 01:25 | 33.89878 | -81.91045 | 31503 ft | 414 kts | 15° |
| 2026-05-04 01:25 | 33.92560 | -81.89842 | 30943 ft | 408 kts | 15° |
| 2026-05-04 01:25 | 33.95206 | -81.88653 | 30650 ft | 402 kts | 15° |
| 2026-05-04 01:25 | 33.97793 | -81.87458 | 30534 ft | 394 kts | 16° |
| 2026-05-04 01:26 | 34.00331 | -81.86251 | 30188 ft | 392 kts | 17° |
| 2026-05-04 01:26 | 34.02864 | -81.85028 | 29786 ft | 391 kts | 18° |
| 2026-05-04 01:26 | 34.05302 | -81.83564 | 29426 ft | 392 kts | 26° |
| 2026-05-04 01:26 | 34.07620 | -81.81864 | 29073 ft | 389 kts | 27° |
| 2026-05-04 01:27 | 34.09924 | -81.80183 | 28719 ft | 385 kts | 27° |
| 2026-05-04 01:27 | 34.12210 | -81.78528 | 28378 ft | 382 kts | 26° |
| 2026-05-04 01:27 | 34.14469 | -81.76899 | 28040 ft | 378 kts | 26° |
| 2026-05-04 01:27 | 34.16717 | -81.75278 | 27686 ft | 375 kts | 26° |
| 2026-05-04 01:28 | 34.18944 | -81.73670 | 27341 ft | 371 kts | 26° |
| 2026-05-04 01:28 | 34.21152 | -81.72073 | 27002 ft | 368 kts | 26° |
| 2026-05-04 01:28 | 34.23344 | -81.70482 | 26633 ft | 366 kts | 26° |
| 2026-05-04 01:28 | 34.25515 | -81.68903 | 26282 ft | 363 kts | 26° |
| 2026-05-04 01:29 | 34.27672 | -81.67330 | 25915 ft | 361 kts | 26° |
| 2026-05-04 01:29 | 34.29786 | -81.65787 | 25552 ft | 359 kts | 26° |
| 2026-05-04 01:29 | 34.31918 | -81.64235 | 25189 ft | 357 kts | 26° |
| 2026-05-04 01:29 | 34.34085 | -81.62654 | 24836 ft | 372 kts | 26° |
| 2026-05-04 01:30 | 34.36323 | -81.61027 | 24481 ft | 377 kts | 26° |
| 2026-05-04 01:30 | 34.38576 | -81.59390 | 24132 ft | 377 kts | 26° |
| 2026-05-04 01:30 | 34.40825 | -81.57755 | 23784 ft | 376 kts | 26° |
| 2026-05-04 01:30 | 34.43062 | -81.56128 | 23349 ft | 374 kts | 26° |
| 2026-05-04 01:31 | 34.45287 | -81.54509 | 22960 ft | 372 kts | 26° |
| 2026-05-04 01:31 | 34.47499 | -81.52885 | 22555 ft | 370 kts | 26° |
| 2026-05-04 01:31 | 34.49689 | -81.51272 | 22163 ft | 367 kts | 26° |
| 2026-05-04 01:31 | 34.51867 | -81.49669 | 21767 ft | 365 kts | 26° |
| 2026-05-04 01:32 | 34.54030 | -81.48077 | 21386 ft | 362 kts | 26° |
| 2026-05-04 01:32 | 34.56176 | -81.46499 | 21008 ft | 359 kts | 26° |
| 2026-05-04 01:32 | 34.58277 | -81.44854 | 20633 ft | 359 kts | 31° |
| 2026-05-04 01:32 | 34.60266 | -81.43026 | 20265 ft | 358 kts | 34° |
| 2026-05-04 01:33 | 34.62207 | -81.41143 | 19901 ft | 356 kts | 34° |
| 2026-05-04 01:33 | 34.64181 | -81.39370 | 19475 ft | 352 kts | 29° |
| 2026-05-04 01:33 | 34.66210 | -81.37734 | 18829 ft | 348 kts | 28° |
| 2026-05-04 01:33 | 34.68239 | -81.36151 | 18170 ft | 345 kts | 28° |
| 2026-05-04 01:34 | 34.70252 | -81.34600 | 17528 ft | 339 kts | 27° |
| 2026-05-04 01:34 | 34.72232 | -81.33076 | 16885 ft | 334 kts | 27° |
| 2026-05-04 01:34 | 34.74183 | -81.31569 | 16249 ft | 330 kts | 28° |
| 2026-05-04 01:34 | 34.76091 | -81.30088 | 15795 ft | 320 kts | 28° |
| 2026-05-04 01:35 | 34.77913 | -81.28666 | 15429 ft | 310 kts | 28° |
| 2026-05-04 01:35 | 34.79700 | -81.27260 | 15075 ft | 305 kts | 30° |
| 2026-05-04 01:35 | 34.81333 | -81.25590 | 14727 ft | 308 kts | 39° |
| 2026-05-04 01:35 | 34.82891 | -81.23809 | 14381 ft | 307 kts | 39° |
| 2026-05-04 01:36 | 34.84448 | -81.22036 | 14040 ft | 306 kts | 39° |
| 2026-05-04 01:36 | 34.86002 | -81.20270 | 13677 ft | 305 kts | 39° |
| 2026-05-04 01:36 | 34.87547 | -81.18519 | 13327 ft | 302 kts | 39° |
| 2026-05-04 01:36 | 34.89082 | -81.16779 | 12986 ft | 300 kts | 39° |
| 2026-05-04 01:37 | 34.90598 | -81.15054 | 12614 ft | 297 kts | 39° |
| 2026-05-04 01:37 | 34.92102 | -81.13337 | 12281 ft | 295 kts | 39° |
| 2026-05-04 01:37 | 34.93596 | -81.11633 | 11956 ft | 293 kts | 39° |
| 2026-05-04 01:37 | 34.95096 | -81.09921 | 11850 ft | 299 kts | 39° |
| 2026-05-04 01:38 | 34.96624 | -81.08180 | 11734 ft | 301 kts | 39° |
| 2026-05-04 01:38 | 34.98243 | -81.06581 | 11620 ft | 297 kts | 27° |
| 2026-05-04 01:38 | 35.00099 | -81.05560 | 11516 ft | 290 kts | 12° |
| 2026-05-04 01:38 | 35.02068 | -81.05164 | 11397 ft | 285 kts | 358° |
| 2026-05-04 01:39 | 35.04032 | -81.05280 | 11280 ft | 282 kts | 352° |
| 2026-05-04 01:39 | 35.05963 | -81.05455 | 11170 ft | 282 kts | 352° |
| 2026-05-04 01:39 | 35.07912 | -81.05628 | 11055 ft | 281 kts | 352° |
| 2026-05-04 01:39 | 35.09849 | -81.05801 | 10946 ft | 280 kts | 353° |
| 2026-05-04 01:40 | 35.11792 | -81.05975 | 10832 ft | 279 kts | 353° |
| 2026-05-04 01:40 | 35.13727 | -81.06150 | 10720 ft | 278 kts | 353° |
| 2026-05-04 01:40 | 35.15658 | -81.06324 | 10614 ft | 278 kts | 353° |
| 2026-05-04 01:40 | 35.17581 | -81.06495 | 10517 ft | 277 kts | 353° |
| 2026-05-04 01:41 | 35.19495 | -81.06663 | 10402 ft | 274 kts | 352° |
| 2026-05-04 01:41 | 35.21388 | -81.06829 | 10295 ft | 272 kts | 352° |
| 2026-05-04 01:41 | 35.23277 | -81.06995 | 10188 ft | 271 kts | 352° |
| 2026-05-04 01:41 | 35.25157 | -81.07162 | 10080 ft | 270 kts | 352° |
| 2026-05-04 01:42 | 35.27029 | -81.07328 | 9966 ft | 270 kts | 353° |
| 2026-05-04 01:42 | 35.28904 | -81.07495 | 9858 ft | 269 kts | 353° |
| 2026-05-04 01:42 | 35.30776 | -81.07639 | 9750 ft | 270 kts | 354° |
| 2026-05-04 01:42 | 35.32646 | -81.07783 | 9643 ft | 269 kts | 352° |
| 2026-05-04 01:43 | 35.34502 | -81.07961 | 9542 ft | 269 kts | 353° |
| 2026-05-04 01:43 | 35.36371 | -81.08115 | 9438 ft | 269 kts | 353° |
| 2026-05-04 01:43 | 35.38239 | -81.08269 | 9296 ft | 269 kts | 353° |
| 2026-05-04 01:43 | 35.40083 | -81.08419 | 9211 ft | 269 kts | 353° |
| 2026-05-04 01:44 | 35.41949 | -81.08574 | 9134 ft | 265 kts | 353° |
| 2026-05-04 01:44 | 35.43753 | -81.08695 | 9061 ft | 254 kts | 353° |
| 2026-05-04 01:44 | 35.45475 | -81.08819 | 8982 ft | 243 kts | 353° |
| 2026-05-04 01:44 | 35.47134 | -81.08935 | 8904 ft | 233 kts | 353° |
| 2026-05-04 01:45 | 35.48720 | -81.09043 | 8811 ft | 224 kts | 353° |
| 2026-05-04 01:45 | 35.50259 | -81.09139 | 8655 ft | 218 kts | 355° |
| 2026-05-04 01:45 | 35.52950 | -81.07517 | 7737 ft | 236 kts | 54° |
| 2026-05-04 01:46 | 35.53431 | -81.05610 | 7405 ft | 238 kts | 87° |
| 2026-05-04 01:46 | 35.53038 | -81.03660 | 7123 ft | 237 kts | 119° |
| 2026-05-04 01:46 | 35.52171 | -81.01960 | 6858 ft | 233 kts | 123° |
| 2026-05-04 01:46 | 35.51294 | -81.00302 | 6603 ft | 229 kts | 128° |
| 2026-05-04 01:47 | 35.50195 | -80.98926 | 6350 ft | 224 kts | 144° |
| 2026-05-04 01:47 | 35.48875 | -80.97972 | 6070 ft | 219 kts | 160° |
| 2026-05-04 01:47 | 35.47399 | -80.97502 | 5628 ft | 220 kts | 175° |
| 2026-05-04 01:47 | 35.45876 | -80.97314 | 5295 ft | 219 kts | 179° |
| 2026-05-04 01:48 | 35.44373 | -80.97184 | 4999 ft | 216 kts | 179° |
| 2026-05-04 01:48 | 35.42881 | -80.97056 | 4708 ft | 213 kts | 179° |
| 2026-05-04 01:48 | 35.41414 | -80.96930 | 4417 ft | 209 kts | 179° |
| 2026-05-04 01:48 | 35.39972 | -80.96805 | 4133 ft | 206 kts | 180° |
| 2026-05-04 01:49 | 35.38576 | -80.96684 | 3864 ft | 202 kts | 179° |
| 2026-05-04 01:49 | 35.37183 | -80.96564 | 3596 ft | 199 kts | 180° |
| 2026-05-04 01:49 | 35.35834 | -80.96447 | 3337 ft | 189 kts | 180° |
| 2026-05-04 01:49 | 35.34565 | -80.96336 | 3126 ft | 175 kts | 180° |
| 2026-05-04 01:50 | 35.33386 | -80.96234 | 2867 ft | 164 kts | 179° |
| 2026-05-04 01:50 | 35.32287 | -80.96138 | 2655 ft | 152 kts | 180° |
| 2026-05-04 01:50 | 35.31309 | -80.96053 | 2471 ft | 133 kts | 180° |
| 2026-05-04 01:50 | 35.30417 | -80.95976 | 2293 ft | 125 kts | 180° |
| 2026-05-04 01:51 | 35.29561 | -80.95903 | 2130 ft | 122 kts | 180° |
| 2026-05-04 01:51 | 35.28720 | -80.95831 | 1973 ft | 121 kts | 180° |
| 2026-05-04 01:51 | 35.27884 | -80.95759 | 1811 ft | 120 kts | 180° |
| 2026-05-04 01:51 | 35.27049 | -80.95689 | 1644 ft | 121 kts | 180° |
| 2026-05-04 01:52 | 35.26207 | -80.95617 | 1427 ft | 122 kts | 178° |
| 2026-05-04 01:52 | 35.25357 | -80.95545 | 1251 ft | 123 kts | 178° |
| 2026-05-04 01:52 | 35.24503 | -80.95465 | 1073 ft | 123 kts | 177° |
| 2026-05-04 01:52 | 35.23660 | -80.95392 | 925 ft | 124 kts | 178° |
| 2026-05-04 01:53 | 35.22804 | -80.95322 | 772 ft | 123 kts | 178° |
| 2026-05-04 01:53 | 35.21991 | -80.95257 | 719 ft | 105 kts | 177° |
| 2026-05-04 01:53 | 35.21419 | -80.95203 | 721 ft | 58 kts | 177° |
| 2026-05-04 01:53 | 35.21172 | -80.95184 | 722 ft | 25 kts | 175° |
| 2026-05-04 01:54 | 35.20996 | -80.95166 | 723 ft | 26 kts | 176° |
| 2026-05-04 01:54 | 35.20817 | -80.95148 | 726 ft | 24 kts | 171° |
| 2026-05-04 01:54 | 35.20680 | -80.95090 | 727 ft | 21 kts | 152° |
| 2026-05-04 01:54 | 35.20584 | -80.95008 | 728 ft | 14 kts | 123° |
| 2026-05-04 01:55 | 35.20577 | -80.94979 | 727 ft | 0 kts | 97° |
| 2026-05-04 01:55 | 35.20577 | -80.94971 | 727 ft | 3 kts | 86° |
| 2026-05-04 01:56 | 35.20589 | -80.94926 | 726 ft | 8 kts | 71° |
| 2026-05-04 01:56 | 35.20607 | -80.94848 | 728 ft | 7 kts | 74° |
| 2026-05-04 01:56 | 35.20647 | -80.94830 | 727 ft | 8 kts | 348° |
| 2026-05-04 01:56 | 35.20710 | -80.94845 | 725 ft | 11 kts | 351° |
| 2026-05-04 01:57 | 35.20791 | -80.94856 | 725 ft | 12 kts | 354° |
| 2026-05-04 01:57 | 35.20883 | -80.94866 | 727 ft | 15 kts | 355° |
| 2026-05-04 01:57 | 35.20996 | -80.94876 | 725 ft | 18 kts | 355° |
| 2026-05-04 01:57 | 35.21125 | -80.94887 | 724 ft | 18 kts | 356° |
| 2026-05-04 01:58 | 35.21210 | -80.94885 | 721 ft | 8 kts | 25° |
| 2026-05-04 01:58 | 35.21248 | -80.94832 | 723 ft | 10 kts | 52° |
| 2026-05-04 01:58 | 35.21293 | -80.94759 | 721 ft | 12 kts | 60° |
| 2026-05-04 01:58 | 35.21322 | -80.94654 | 721 ft | 14 kts | 73° |
| 2026-05-04 01:59 | 35.21373 | -80.94541 | 721 ft | 16 kts | 48° |
| 2026-05-04 01:59 | 35.21453 | -80.94431 | 721 ft | 18 kts | 49° |
| 2026-05-04 01:59 | 35.21532 | -80.94321 | 721 ft | 15 kts | 48° |
| 2026-05-04 01:59 | 35.21584 | -80.94251 | 723 ft | 0 kts | 48° |
| 2026-05-04 02:01 | 35.21587 | -80.94246 | 722 ft | 2 kts | 48° |
| 2026-05-04 02:01 | 35.21602 | -80.94226 | 723 ft | 4 kts | 48° |
| 2026-05-04 02:01 | 35.21625 | -80.94194 | 723 ft | 6 kts | 49° |
| 2026-05-04 02:01 | 35.21652 | -80.94156 | 723 ft | 7 kts | 48° |
| 2026-05-04 02:02 | 35.21688 | -80.94106 | 723 ft | 9 kts | 48° |
| 2026-05-04 02:02 | 35.21736 | -80.94041 | 724 ft | 12 kts | 47° |
| 2026-05-04 02:02 | 35.21798 | -80.93987 | 724 ft | 11 kts | 7° |
| 2026-05-04 02:02 | 35.21863 | -80.94043 | 725 ft | 14 kts | 320° |
| 2026-05-04 02:03 | 35.21914 | -80.94099 | 725 ft | 12 kts | 311° |
| 2026-05-04 02:03 | 35.21951 | -80.94155 | 726 ft | 0 kts | 310° |
| 2026-05-04 02:03 | 35.21960 | -80.94159 | 725 ft | 3 kts | 339° |
| 2026-05-04 02:03 | 35.21975 | -80.94158 | 724 ft | 1 kts | 11° |
| 2026-05-04 02:04 | 35.21994 | -80.94155 | 728 ft | 3 kts | 6° |
| 2026-05-04 02:04 | 35.22012 | -80.94152 | 725 ft | 2 kts | 8° |
| 2026-05-04 02:04 | 35.22013 | -80.94152 | 725 ft | 0 kts | 8° |
| 2026-05-04 02:04 | 35.22004 | -80.94155 | 725 ft | 0 kts | 355° |